Time;durP1;ratioP1;P1;durP2;ratioP2;P2;SDS_P1;SDS_P2;PMS_P1;PMS_P2;Temp;Humidity;BMP_temperature;BMP_pressure;BME280_temperature;BME280_humidity;BME280_pressure;Samples;Min_cycle;Max_cycle;Signal;HPM_P1;HPM_P2
2022/10/31 00:02:13;;;;;;;6.67;4.23;;;17.00;99.90;;;;;;5031272;28;20176;-74
2022/10/31 00:04:39;;;;;;;8.60;4.87;;;16.90;99.90;;;;;;5030436;28;20178;-75
2022/10/31 00:07:05;;;;;;;7.80;5.63;;;16.90;99.90;;;;;;5013737;28;20225;-74
2022/10/31 00:09:31;;;;;;;9.60;4.53;;;16.90;99.90;;;;;;5013855;28;20201;-74
2022/10/31 00:11:56;;;;;;;5.03;4.33;;;16.90;99.90;;;;;;4996979;28;20568;-74
2022/10/31 00:14:22;;;;;;;7.83;4.90;;;16.90;99.90;;;;;;5034333;28;20174;-74
2022/10/31 00:16:48;;;;;;;8.17;4.27;;;16.80;99.90;;;;;;5031246;28;20217;-74
2022/10/31 00:19:14;;;;;;;8.80;5.00;;;16.80;99.90;;;;;;5032330;28;20161;-74
2022/10/31 00:21:39;;;;;;;9.40;4.70;;;16.80;99.90;;;;;;5031306;28;20166;-74
2022/10/31 00:24:05;;;;;;;11.93;5.17;;;16.80;99.90;;;;;;5031978;28;20951;-74
2022/10/31 00:26:31;;;;;;;8.67;4.60;;;16.70;99.90;;;;;;5035457;28;20269;-74
2022/10/31 00:28:58;;;;;;;12.50;6.20;;;16.70;99.90;;;;;;5017422;28;20945;-74
2022/10/31 00:31:24;;;;;;;6.50;4.60;;;16.70;99.90;;;;;;5035219;28;20608;-74
2022/10/31 00:33:50;;;;;;;8.00;5.10;;;16.70;99.90;;;;;;5035078;28;20565;-74
2022/10/31 00:36:19;;;;;;;12.23;4.97;;;16.70;99.90;;;;;;5017557;28;20592;-74
2022/10/31 00:38:46;;;;;;;9.77;4.43;;;16.70;99.90;;;;;;5035129;28;21000;-74
2022/10/31 00:41:13;;;;;;;8.97;4.90;;;16.70;99.90;;;;;;5017547;28;20575;-74
2022/10/31 00:43:41;;;;;;;6.07;5.10;;;16.70;99.90;;;;;;5017282;28;20926;-74
2022/10/31 00:46:06;;;;;;;7.13;4.37;;;16.70;99.90;;;;;;5034952;28;20596;-74
2022/10/31 00:48:32;;;;;;;10.00;4.37;;;16.70;99.90;;;;;;5017337;28;20582;-74
2022/10/31 00:50:58;;;;;;;4.40;3.80;;;16.70;99.90;;;;;;5017366;28;20296;-74
2022/10/31 00:53:24;;;;;;;8.07;4.30;;;16.70;99.90;;;;;;5034780;28;20240;-74
2022/10/31 00:55:52;;;;;;;8.13;4.37;;;16.70;99.90;;;;;;5035145;28;20632;-73
2022/10/31 00:58:18;;;;;;;10.47;5.13;;;16.70;99.90;;;;;;5034931;28;20575;-74
2022/10/31 01:00:46;;;;;;;8.07;4.60;;;16.70;99.90;;;;;;5017314;28;20576;-75
2022/10/31 01:03:12;;;;;;;11.17;3.90;;;16.80;99.90;;;;;;5016614;28;20568;-75
2022/10/31 01:05:40;;;;;;;7.60;4.57;;;16.80;99.90;;;;;;5016966;28;20595;-75
2022/10/31 01:08:07;;;;;;;6.27;3.67;;;16.80;99.90;;;;;;5017135;28;20572;-75
2022/10/31 01:10:33;;;;;;;6.10;4.00;;;16.80;99.90;;;;;;5034531;28;20608;-75
2022/10/31 01:12:58;;;;;;;7.87;4.77;;;16.80;99.90;;;;;;5034333;28;20312;-75
2022/10/31 01:15:24;;;;;;;11.90;4.77;;;16.80;99.90;;;;;;5034601;28;20188;-75
2022/10/31 01:17:50;;;;;;;8.90;4.80;;;16.80;99.90;;;;;;5016765;28;20205;-74
2022/10/31 01:20:17;;;;;;;7.03;4.23;;;16.80;99.90;;;;;;5016776;28;20622;-74
2022/10/31 01:22:42;;;;;;;6.60;4.00;;;16.70;99.90;;;;;;5034061;28;20223;-74
2022/10/31 01:25:09;;;;;;;6.30;4.40;;;16.70;99.90;;;;;;5034369;28;20572;-74
2022/10/31 01:27:35;;;;;;;4.97;4.23;;;16.70;99.90;;;;;;5016753;28;20236;-75
2022/10/31 01:30:01;;;;;;;7.90;4.80;;;16.70;99.90;;;;;;5034307;28;20608;-75
2022/10/31 01:32:28;;;;;;;5.90;4.53;;;16.70;99.90;;;;;;5034832;28;20564;-75
2022/10/31 01:34:54;;;;;;;7.00;5.17;;;16.70;99.90;;;;;;5000544;28;20627;-75
2022/10/31 01:37:20;;;;;;;7.60;5.10;;;16.70;99.90;;;;;;5015154;28;20592;-74
2022/10/31 01:39:48;;;;;;;7.50;4.50;;;16.70;99.90;;;;;;5034035;28;21177;-74
2022/10/31 01:42:22;;;;;;;8.10;4.53;;;16.70;99.90;;;;;;5033759;28;21085;-74
2022/10/31 01:44:50;;;;;;;7.00;3.40;;;16.60;99.90;;;;;;5033913;28;20771;-74
2022/10/31 01:47:21;;;;;;;9.93;5.33;;;16.70;99.90;;;;;;5033998;28;21075;-74
2022/10/31 01:49:51;;;;;;;7.60;4.60;;;16.60;99.90;;;;;;5000096;28;20604;-74
2022/10/31 01:52:42;;;;;;;6.50;4.87;;;16.60;99.90;;;;;;5032654;28;20597;-75
2022/10/31 01:55:31;;;;;;;10.50;5.50;;;16.60;99.90;;;;;;5034045;28;20576;-74
2022/10/31 01:58:11;;;;;;;7.40;5.53;;;16.50;99.90;;;;;;5016282;28;20561;-74
2022/10/31 02:00:39;;;;;;;12.60;6.03;;;16.50;99.90;;;;;;5017703;28;20622;-74
2022/10/31 02:03:04;;;;;;;9.70;6.03;;;16.50;99.90;;;;;;5033744;28;20610;-75
2022/10/31 02:05:31;;;;;;;9.53;5.20;;;16.50;99.90;;;;;;5034151;28;20576;-75
2022/10/31 02:08:14;;;;;;;7.83;5.73;;;16.50;99.90;;;;;;5016333;28;20665;-75
2022/10/31 02:10:42;;;;;;;9.23;5.47;;;16.40;99.90;;;;;;5016602;28;20623;-75
2022/10/31 02:13:09;;;;;;;7.50;5.20;;;16.40;99.90;;;;;;5016548;28;20563;-75
2022/10/31 02:15:45;;;;;;;8.40;5.53;;;16.40;99.90;;;;;;5016372;28;20919;-75
2022/10/31 02:18:11;;;;;;;8.77;4.63;;;16.40;99.90;;;;;;5034114;28;20587;-75
2022/10/31 02:21:03;;;;;;;10.80;5.70;;;16.30;99.90;;;;;;5016652;28;20663;-74
2022/10/31 02:23:30;;;;;;;6.63;4.53;;;16.30;99.90;;;;;;5033006;28;20563;-74
2022/10/31 02:26:31;;;;;;;9.60;5.57;;;16.30;99.90;;;;;;5016525;28;20603;-75
2022/10/31 02:29:25;;;;;;;12.23;5.30;;;16.30;99.90;;;;;;5010821;28;20580;-75
2022/10/31 02:32:16;;;;;;;7.50;4.70;;;16.30;99.90;;;;;;4999175;28;20585;-75
2022/10/31 02:35:22;;;;;;;6.07;4.47;;;16.20;99.90;;;;;;5015357;28;20568;-75
2022/10/31 02:38:01;;;;;;;6.10;4.23;;;16.20;99.90;;;;;;5015209;28;20588;-74
2022/10/31 02:40:35;;;;;;;7.63;5.03;;;16.20;99.90;;;;;;5015539;28;20659;-74
2022/10/31 02:43:35;;;;;;;6.57;4.60;;;16.20;99.90;;;;;;5018785;28;20580;-75
2022/10/31 02:46:10;;;;;;;5.10;3.70;;;16.10;99.90;;;;;;5031645;28;20711;-75
2022/10/31 02:48:40;;;;;;;5.53;4.63;;;16.10;99.90;;;;;;5016274;28;20595;-75
2022/10/31 02:51:08;;;;;;;8.27;5.53;;;16.10;99.90;;;;;;5014797;28;21560;-75
2022/10/31 02:53:37;;;;;;;7.63;4.57;;;16.10;99.90;;;;;;4998842;28;20636;-75
2022/10/31 02:56:18;;;;;;;6.50;4.80;;;16.10;99.90;;;;;;5014891;28;20596;-75
2022/10/31 02:58:56;;;;;;;10.13;5.33;;;16.10;99.90;;;;;;4998569;28;21362;-75
2022/10/31 03:01:31;;;;;;;6.30;4.13;;;16.10;99.90;;;;;;5014833;28;20588;-75
2022/10/31 03:04:27;;;;;;;9.87;5.00;;;16.10;99.90;;;;;;5014841;28;20967;-75
2022/10/31 03:07:10;;;;;;;7.93;4.47;;;16.10;99.90;;;;;;4998605;28;20601;-75
2022/10/31 03:09:56;;;;;;;8.90;5.37;;;16.10;99.90;;;;;;4998805;28;20620;-74
2022/10/31 03:12:36;;;;;;;7.53;4.50;;;16.00;99.90;;;;;;5014357;28;20659;-74
2022/10/31 03:15:27;;;;;;;7.63;5.07;;;16.00;99.90;;;;;;5014646;28;20567;-75
2022/10/31 03:18:07;;;;;;;6.70;4.63;;;16.00;99.90;;;;;;5014633;28;20623;-74
2022/10/31 03:20:42;;;;;;;8.10;5.10;;;16.00;99.90;;;;;;5032128;28;20575;-74
2022/10/31 03:23:13;;;;;;;8.07;3.90;;;16.00;99.90;;;;;;5014323;28;20651;-75
2022/10/31 03:25:41;;;;;;;6.93;4.47;;;16.00;99.90;;;;;;5032449;28;20575;-75
2022/10/31 03:28:11;;;;;;;9.60;4.67;;;16.00;99.90;;;;;;5014179;28;20630;-74
2022/10/31 03:30:41;;;;;;;9.43;5.30;;;16.00;99.90;;;;;;5032089;28;20659;-75
2022/10/31 03:33:13;;;;;;;10.23;4.57;;;16.10;99.90;;;;;;5031726;28;20572;-75
2022/10/31 03:35:42;;;;;;;8.70;4.77;;;16.10;99.90;;;;;;5014317;28;20672;-74
2022/10/31 03:38:09;;;;;;;7.30;4.47;;;16.10;99.90;;;;;;5013974;28;20951;-74
2022/10/31 03:40:38;;;;;;;7.90;4.80;;;16.20;99.90;;;;;;5031624;28;20564;-74
2022/10/31 03:43:10;;;;;;;7.80;4.90;;;16.20;99.90;;;;;;5013972;28;20652;-74
2022/10/31 03:45:41;;;;;;;6.30;4.73;;;16.20;99.90;;;;;;5031879;28;20588;-75
2022/10/31 03:48:07;;;;;;;4.70;4.20;;;16.20;99.90;;;;;;5031967;28;20615;-74
2022/10/31 03:50:40;;;;;;;6.03;4.30;;;16.20;99.90;;;;;;5014140;28;20620;-74
2022/10/31 03:53:14;;;;;;;5.80;3.67;;;16.20;99.90;;;;;;5030376;28;21124;-75
2022/10/31 03:55:51;;;;;;;6.80;4.80;;;16.20;99.90;;;;;;4997579;28;20557;-74
2022/10/31 03:58:37;;;;;;;9.90;4.00;;;16.20;99.90;;;;;;5013945;28;20569;-74
2022/10/31 04:01:07;;;;;;;7.57;5.17;;;16.20;99.90;;;;;;5016318;28;20579;-75
2022/10/31 04:03:37;;;;;;;6.50;4.40;;;16.20;99.90;;;;;;5013820;28;20592;-75
2022/10/31 04:06:08;;;;;;;6.57;4.40;;;16.20;99.90;;;;;;5013947;28;20683;-75
2022/10/31 04:08:47;;;;;;;5.77;3.90;;;16.20;99.90;;;;;;5030397;28;20716;-75
2022/10/31 04:11:21;;;;;;;6.33;4.00;;;16.20;99.90;;;;;;5038680;28;21215;-74
2022/10/31 04:14:00;;;;;;;8.97;4.30;;;16.20;99.90;;;;;;5019202;28;20682;-74
2022/10/31 04:16:27;;;;;;;9.37;4.40;;;16.20;99.90;;;;;;5013772;28;21036;-74
2022/10/31 04:18:53;;;;;;;6.70;5.17;;;16.20;99.90;;;;;;5021319;28;20663;-74
2022/10/31 04:21:19;;;;;;;7.43;4.90;;;16.20;99.90;;;;;;5030403;28;20568;-75
2022/10/31 04:23:45;;;;;;;6.63;4.83;;;16.20;99.90;;;;;;4996785;28;20589;-75
2022/10/31 04:26:18;;;;;;;5.93;4.70;;;16.20;99.90;;;;;;5037200;28;20631;-76
2022/10/31 04:28:43;;;;;;;8.07;4.60;;;16.20;99.90;;;;;;4997164;28;20620;-74
2022/10/31 04:31:11;;;;;;;6.07;4.57;;;16.20;99.90;;;;;;5013968;28;20212;-74
2022/10/31 04:33:38;;;;;;;8.43;4.97;;;16.10;99.90;;;;;;4994230;28;21009;-75
2022/10/31 04:36:04;;;;;;;9.83;4.90;;;16.00;99.90;;;;;;5040093;28;20605;-74
2022/10/31 04:38:31;;;;;;;10.33;4.40;;;16.00;99.90;;;;;;5034667;28;20569;-74
2022/10/31 04:40:57;;;;;;;7.63;4.57;;;16.00;99.90;;;;;;5013400;28;20916;-74
2022/10/31 04:43:41;;;;;;;5.20;4.20;;;16.00;99.90;;;;;;5013268;28;20671;-75
2022/10/31 04:46:07;;;;;;;9.20;4.60;;;15.90;99.90;;;;;;5013614;28;20723;-74
2022/10/31 04:48:33;;;;;;;6.27;4.20;;;15.90;99.90;;;;;;4997221;28;20196;-74
2022/10/31 04:51:00;;;;;;;7.13;4.73;;;15.90;99.90;;;;;;5013369;28;20197;-74
2022/10/31 04:53:27;;;;;;;8.50;6.07;;;15.80;99.90;;;;;;5013352;28;20855;-74
2022/10/31 04:56:25;;;;;;;8.67;4.53;;;15.70;99.90;;;;;;5013168;28;20608;-74
2022/10/31 04:58:56;;;;;;;6.27;4.57;;;15.70;99.90;;;;;;5030952;28;20580;-76
2022/10/31 05:01:23;;;;;;;5.60;4.30;;;15.70;99.90;;;;;;5013502;28;20622;-76
2022/10/31 05:03:49;;;;;;;6.90;5.33;;;15.70;99.90;;;;;;5030958;28;20572;-76
2022/10/31 05:06:16;;;;;;;5.60;3.80;;;15.70;99.90;;;;;;5013462;28;20198;-75
2022/10/31 05:08:42;;;;;;;10.67;5.33;;;15.70;99.90;;;;;;5013518;28;20572;-75
2022/10/31 05:11:10;;;;;;;7.30;4.40;;;15.70;99.90;;;;;;5015477;28;20624;-74
2022/10/31 05:13:36;;;;;;;9.87;4.70;;;15.70;99.90;;;;;;5016842;28;20626;-75
2022/10/31 05:16:11;;;;;;;8.00;4.77;;;15.70;99.90;;;;;;5027330;28;20599;-75
2022/10/31 05:18:55;;;;;;;10.13;4.53;;;15.60;99.90;;;;;;5034498;28;20576;-75
2022/10/31 05:21:47;;;;;;;11.17;5.10;;;15.60;99.90;;;;;;5020757;28;20695;-75
2022/10/31 05:24:12;;;;;;;6.10;4.00;;;15.50;99.90;;;;;;5016505;28;20671;-75
2022/10/31 05:26:40;;;;;;;10.87;5.53;;;15.50;99.90;;;;;;5033089;28;20190;-75
2022/10/31 05:29:06;;;;;;;6.47;4.43;;;15.40;99.90;;;;;;5016627;28;20680;-74
2022/10/31 05:31:32;;;;;;;6.00;4.47;;;15.40;99.90;;;;;;5000059;28;20304;-75
2022/10/31 05:33:58;;;;;;;8.90;5.20;;;15.30;99.90;;;;;;5016317;28;20579;-75
2022/10/31 05:36:47;;;;;;;10.93;5.90;;;15.30;99.90;;;;;;5030635;28;20638;-76
2022/10/31 05:39:17;;;;;;;6.73;4.87;;;15.20;99.90;;;;;;5016455;28;20588;-76
2022/10/31 05:41:46;;;;;;;9.73;5.10;;;15.20;99.90;;;;;;5012815;28;20625;-76
2022/10/31 05:44:16;;;;;;;9.20;5.80;;;15.20;99.90;;;;;;5009002;28;20634;-74
2022/10/31 05:47:08;;;;;;;8.00;4.73;;;15.10;99.90;;;;;;5022974;28;21193;-75
2022/10/31 05:49:52;;;;;;;11.67;5.80;;;15.10;99.90;;;;;;5033997;28;20615;-74
2022/10/31 05:52:44;;;;;;;7.03;5.85;;;15.10;99.90;;;;;;5033721;28;20595;-75
2022/10/31 05:55:19;;;;;;;6.47;5.70;;;15.00;99.90;;;;;;5016144;28;20179;-75
2022/10/31 05:58:01;;;;;;;6.20;4.60;;;15.00;99.90;;;;;;4999783;28;20590;-74
2022/10/31 06:00:28;;;;;;;8.40;5.07;;;15.00;99.90;;;;;;5032439;28;20499;-74
2022/10/31 06:03:05;;;;;;;6.60;4.97;;;15.00;99.90;;;;;;5015957;28;20568;-74
2022/10/31 06:05:42;;;;;;;8.10;4.90;;;15.00;99.90;;;;;;5043306;28;21152;-75
2022/10/31 06:08:07;;;;;;;7.10;4.20;;;15.00;99.90;;;;;;5036702;28;20584;-75
2022/10/31 06:10:34;;;;;;;6.00;4.00;;;15.00;99.90;;;;;;5010901;28;20197;-75
2022/10/31 06:13:00;;;;;;;9.93;4.40;;;15.00;99.90;;;;;;5030865;28;20615;-75
2022/10/31 06:15:41;;;;;;;7.50;4.10;;;15.00;99.90;;;;;;5021815;28;20623;-74
2022/10/31 06:18:08;;;;;;;7.63;4.87;;;15.10;99.90;;;;;;5026800;28;20666;-75
2022/10/31 06:20:43;;;;;;;9.40;4.60;;;15.10;99.90;;;;;;5044570;28;20634;-75
2022/10/31 06:23:10;;;;;;;7.60;4.75;;;15.00;99.90;;;;;;5025210;28;20600;-74
2022/10/31 06:25:36;;;;;;;7.00;4.30;;;15.00;99.90;;;;;;5018099;28;20184;-75
2022/10/31 06:28:04;;;;;;;7.03;4.30;;;15.00;99.90;;;;;;5014828;28;20584;-75
2022/10/31 06:30:52;;;;;;;8.33;4.87;;;15.00;99.90;;;;;;5015602;28;20723;-75
2022/10/31 06:33:18;;;;;;;8.43;4.37;;;15.00;99.90;;;;;;5015237;28;20608;-75
2022/10/31 06:35:54;;;;;;;7.43;4.40;;;15.00;99.90;;;;;;5016936;28;20707;-75
2022/10/31 06:38:20;;;;;;;6.47;4.80;;;15.00;99.90;;;;;;4999162;28;20596;-75
2022/10/31 06:40:46;;;;;;;6.87;4.93;;;15.00;99.90;;;;;;5015322;28;20568;-75
2022/10/31 06:43:24;;;;;;;8.03;4.90;;;15.00;99.90;;;;;;5016881;28;20583;-74
2022/10/31 06:46:02;;;;;;;7.20;4.57;;;15.10;99.90;;;;;;5045258;28;20661;-74
2022/10/31 06:48:42;;;;;;;6.73;5.00;;;15.10;99.90;;;;;;5001261;28;21213;-75
2022/10/31 06:51:18;;;;;;;9.50;5.00;;;15.00;99.90;;;;;;5031156;28;20626;-74
2022/10/31 06:53:45;;;;;;;5.53;4.40;;;15.10;99.90;;;;;;5032466;28;20607;-74
2022/10/31 06:56:13;;;;;;;7.60;5.20;;;15.10;99.90;;;;;;4997943;28;20703;-74
2022/10/31 06:58:54;;;;;;;13.40;4.93;;;15.10;99.90;;;;;;5013695;28;20581;-74
2022/10/31 07:01:36;;;;;;;10.17;5.20;;;15.10;99.90;;;;;;5034442;28;20611;-74
2022/10/31 07:04:02;;;;;;;9.17;5.20;;;15.10;99.90;;;;;;5034024;28;20590;-74
2022/10/31 07:06:31;;;;;;;7.73;4.07;;;15.20;99.90;;;;;;5037242;28;20195;-74
2022/10/31 07:08:56;;;;;;;6.77;4.37;;;15.20;99.90;;;;;;5034209;28;20575;-74
2022/10/31 07:11:22;;;;;;;10.70;4.83;;;15.30;99.90;;;;;;5033496;28;20645;-74
2022/10/31 07:13:48;;;;;;;8.67;4.53;;;15.40;99.90;;;;;;5033594;28;20621;-74
2022/10/31 07:16:14;;;;;;;8.30;4.60;;;15.40;99.90;;;;;;5050465;28;20669;-75
2022/10/31 07:18:41;;;;;;;13.43;4.60;;;15.50;99.90;;;;;;5034054;28;20570;-74
2022/10/31 07:21:08;;;;;;;6.67;4.70;;;15.50;99.90;;;;;;5024134;28;20691;-74
2022/10/31 07:23:34;;;;;;;9.33;4.70;;;15.50;99.90;;;;;;5032691;28;20710;-74
2022/10/31 07:26:19;;;;;;;10.90;5.20;;;15.60;99.90;;;;;;5013908;28;20294;-74
2022/10/31 07:28:47;;;;;;;8.30;4.17;;;15.70;99.90;;;;;;5013201;28;20596;-74
2022/10/31 07:31:14;;;;;;;10.10;5.63;;;15.70;99.90;;;;;;5021266;28;20699;-73
2022/10/31 07:33:40;;;;;;;6.23;4.50;;;15.80;99.90;;;;;;5012411;28;20591;-72
2022/10/31 07:36:35;;;;;;;9.00;5.40;;;15.80;99.90;;;;;;5037325;28;21005;-74
2022/10/31 07:39:03;;;;;;;8.80;4.50;;;15.70;99.90;;;;;;5019324;28;20940;-74
2022/10/31 07:41:31;;;;;;;11.77;5.20;;;15.70;99.90;;;;;;5016148;28;20584;-74
2022/10/31 07:43:57;;;;;;;7.27;4.13;;;15.80;99.90;;;;;;4997380;28;20580;-74
2022/10/31 07:46:41;;;;;;;6.50;4.00;;;15.80;99.90;;;;;;5030650;28;20592;-74
2022/10/31 07:49:25;;;;;;;8.23;4.43;;;15.90;99.90;;;;;;5013977;28;20679;-74
2022/10/31 07:52:03;;;;;;;5.33;4.10;;;15.90;99.90;;;;;;5030925;28;20898;-74
2022/10/31 07:54:51;;;;;;;7.33;4.37;;;15.90;99.90;;;;;;5002674;28;20739;-73
2022/10/31 07:57:22;;;;;;;8.70;4.37;;;15.90;99.90;;;;;;5013552;28;20691;-73
2022/10/31 07:59:48;;;;;;;10.67;4.87;;;16.00;99.90;;;;;;5029613;28;20600;-73
2022/10/31 08:02:17;;;;;;;7.97;4.70;;;16.10;99.90;;;;;;5028278;28;20678;-74
2022/10/31 08:05:02;;;;;;;7.37;4.60;;;16.10;99.90;;;;;;5031540;28;20679;-74
2022/10/31 08:08:04;;;;;;;7.33;5.20;;;16.20;99.90;;;;;;5030786;28;20588;-74
2022/10/31 08:10:31;;;;;;;6.70;4.87;;;16.20;99.90;;;;;;5013306;28;20627;-74
2022/10/31 08:13:07;;;;;;;8.20;5.57;;;16.30;99.90;;;;;;5029502;28;20898;-74
2022/10/31 08:15:37;;;;;;;9.33;5.40;;;16.40;99.90;;;;;;5011947;28;20573;-74
2022/10/31 08:18:04;;;;;;;10.03;5.40;;;16.40;99.90;;;;;;5010952;28;20601;-73
2022/10/31 08:20:37;;;;;;;10.87;4.97;;;16.40;99.90;;;;;;4999594;28;22269;-74
2022/10/31 08:23:04;;;;;;;7.97;5.00;;;16.40;99.90;;;;;;5030709;28;20616;-73
2022/10/31 08:25:34;;;;;;;8.60;5.30;;;16.50;99.90;;;;;;5029450;28;20597;-74
2022/10/31 08:28:01;;;;;;;6.23;5.17;;;16.50;99.90;;;;;;5002231;28;20601;-74
2022/10/31 08:30:30;;;;;;;10.40;5.83;;;16.60;99.90;;;;;;5026926;28;20683;-74
2022/10/31 08:33:35;;;;;;;9.97;4.73;;;16.60;99.90;;;;;;4949945;29;20615;-75
2022/10/31 08:36:28;;;;;;;5.87;4.70;;;16.70;99.90;;;;;;4949950;28;20623;-75
2022/10/31 08:39:16;;;;;;;6.50;4.60;;;16.70;99.90;;;;;;4997343;28;20628;-76
2022/10/31 08:41:42;;;;;;;7.73;4.83;;;16.80;99.90;;;;;;5014982;28;20930;-75
2022/10/31 08:44:11;;;;;;;6.30;5.00;;;16.80;99.90;;;;;;5010061;28;20680;-75
2022/10/31 08:46:37;;;;;;;5.83;4.53;;;16.80;99.90;;;;;;5033785;28;20694;-76
2022/10/31 08:49:03;;;;;;;6.50;4.53;;;16.80;99.90;;;;;;4999649;28;20606;-75
2022/10/31 08:51:32;;;;;;;8.93;3.97;;;16.80;99.90;;;;;;5016423;28;20615;-75
2022/10/31 08:53:57;;;;;;;9.27;5.00;;;17.00;99.90;;;;;;5016214;28;21004;-74
2022/10/31 08:56:32;;;;;;;13.67;5.73;;;16.90;99.90;;;;;;5049140;28;21134;-74
2022/10/31 08:58:59;;;;;;;10.57;5.00;;;17.00;99.90;;;;;;5036794;28;20965;-74
2022/10/31 09:02:00;;;;;;;9.10;4.67;;;17.10;99.90;;;;;;4992469;28;21089;-73
2022/10/31 09:04:27;;;;;;;7.87;6.07;;;17.10;99.90;;;;;;5023056;28;20611;-73
2022/10/31 09:06:53;;;;;;;9.17;4.97;;;17.20;99.90;;;;;;5018966;28;20667;-74
2022/10/31 09:09:18;;;;;;;7.87;4.77;;;17.10;99.90;;;;;;5025410;28;20587;-74
2022/10/31 09:11:46;;;;;;;12.23;5.90;;;17.10;99.90;;;;;;5033292;28;20197;-74
2022/10/31 09:14:11;;;;;;;11.20;5.10;;;17.10;99.90;;;;;;5036139;28;20584;-74
2022/10/31 09:16:55;;;;;;;7.17;4.23;;;17.10;99.90;;;;;;5036114;28;20243;-74
2022/10/31 09:19:29;;;;;;;6.63;4.10;;;17.20;99.90;;;;;;5021140;28;20577;-74
2022/10/31 09:21:55;;;;;;;9.13;5.23;;;17.30;99.90;;;;;;5034804;28;21202;-74
2022/10/31 09:24:21;;;;;;;7.60;5.13;;;17.40;99.90;;;;;;5019715;28;20169;-74
2022/10/31 09:26:47;;;;;;;11.03;4.60;;;17.50;99.90;;;;;;5052772;28;20602;-74
2022/10/31 09:29:20;;;;;;;6.90;5.07;;;17.60;99.90;;;;;;5036473;28;20982;-73
2022/10/31 09:32:06;;;;;;;6.97;4.80;;;17.60;99.90;;;;;;5037628;28;20582;-74
2022/10/31 09:34:38;;;;;;;7.73;5.50;;;17.80;99.90;;;;;;5028098;28;20934;-73
2022/10/31 09:37:07;;;;;;;7.80;4.70;;;18.00;99.90;;;;;;5020462;28;20611;-75
2022/10/31 09:39:34;;;;;;;9.90;5.13;;;18.10;99.90;;;;;;5012404;28;20742;-73
2022/10/31 09:42:27;;;;;;;7.93;5.50;;;18.30;99.90;;;;;;5007414;28;20588;-74
2022/10/31 09:45:27;;;;;;;7.67;4.87;;;18.50;99.90;;;;;;5032280;28;20610;-74
2022/10/31 09:48:18;;;;;;;8.20;5.60;;;18.80;99.90;;;;;;5015533;28;21003;-74
2022/10/31 09:51:09;;;;;;;7.73;5.90;;;19.10;99.90;;;;;;5017928;28;21289;-73
2022/10/31 09:53:42;;;;;;;8.70;5.60;;;19.60;99.90;;;;;;5053433;28;20563;-73
2022/10/31 09:56:16;;;;;;;11.20;5.80;;;20.00;99.90;;;;;;5035360;28;20707;-73
2022/10/31 09:58:46;;;;;;;5.63;4.80;;;20.40;99.90;;;;;;5035410;28;20568;-73
2022/10/31 10:01:41;;;;;;;7.43;4.90;;;20.80;99.90;;;;;;5052972;28;20619;-73
2022/10/31 10:04:21;;;;;;;7.30;4.40;;;21.30;99.90;;;;;;5024822;28;20576;-74
2022/10/31 10:07:07;;;;;;;7.90;5.07;;;21.70;99.90;;;;;;5035385;28;20607;-74
2022/10/31 10:09:57;;;;;;;12.57;4.77;;;22.10;99.90;;;;;;5053430;28;20639;-74
2022/10/31 10:12:42;;;;;;;8.57;4.50;;;22.50;99.90;;;;;;5054006;28;20639;-74
2022/10/31 10:15:48;;;;;;;9.20;4.17;;;22.70;99.90;;;;;;5053514;28;20655;-74
2022/10/31 10:19:02;;;;;;;7.10;4.17;;;22.80;99.90;;;;;;5035486;28;20606;-74
2022/10/31 10:21:33;;;;;;;10.73;4.90;;;23.10;99.90;;;;;;5025921;28;20646;-74
2022/10/31 10:24:18;;;;;;;8.73;4.70;;;23.50;99.90;;;;;;5006529;28;20593;-75
2022/10/31 10:27:05;;;;;;;8.33;5.00;;;23.70;99.90;;;;;;5032637;28;20616;-74
2022/10/31 10:29:49;;;;;;;9.20;4.90;;;23.90;99.90;;;;;;5030266;28;20711;-74
2022/10/31 10:32:28;;;;;;;10.73;5.03;;;24.20;99.90;;;;;;5012122;28;20645;-74
2022/10/31 10:35:10;;;;;;;8.23;4.67;;;24.20;99.90;;;;;;5012707;28;21147;-75
2022/10/31 10:37:43;;;;;;;7.33;5.33;;;24.00;99.90;;;;;;5032291;28;20619;-74
2022/10/31 10:40:25;;;;;;;12.20;5.47;;;23.70;99.90;;;;;;5015243;28;20599;-73
2022/10/31 10:43:23;;;;;;;8.30;4.70;;;23.40;99.90;;;;;;5032060;28;20667;-74
2022/10/31 10:49:04;;;;;;;5.97;4.20;;;22.90;99.90;;;;;;5033275;28;20726;-74
2022/10/31 10:51:40;;;;;;;8.30;4.80;;;22.80;99.90;;;;;;5032228;28;20622;-74
2022/10/31 10:54:21;;;;;;;6.20;4.43;;;22.60;99.90;;;;;;5030503;28;20595;-74
2022/10/31 10:56:58;;;;;;;9.10;4.37;;;22.50;99.90;;;;;;5031775;28;20627;-74
2022/10/31 10:59:25;;;;;;;6.97;4.43;;;22.30;99.90;;;;;;5032131;28;20576;-74
2022/10/31 11:01:52;;;;;;;8.97;3.70;;;22.10;99.90;;;;;;5031694;28;21146;-74
2022/10/31 11:04:31;;;;;;;7.23;4.00;;;22.00;99.90;;;;;;5031952;28;20576;-74
2022/10/31 11:07:02;;;;;;;5.63;3.60;;;21.80;99.90;;;;;;5031933;28;20599;-74
2022/10/31 11:09:28;;;;;;;6.50;4.00;;;21.80;99.90;;;;;;5032236;28;20572;-74
2022/10/31 11:11:55;;;;;;;10.17;4.40;;;21.70;99.90;;;;;;5021523;28;20726;-73
2022/10/31 11:14:22;;;;;;;16.83;5.50;;;21.60;99.90;;;;;;5026086;28;20660;-74
2022/10/31 11:16:53;;;;;;;10.13;4.40;;;21.50;99.90;;;;;;5031654;28;20619;-74
2022/10/31 11:19:28;;;;;;;7.80;4.80;;;21.50;99.90;;;;;;5038477;28;20679;-74
2022/10/31 11:22:06;;;;;;;8.20;4.07;;;21.40;99.90;;;;;;5038685;28;20968;-74
2022/10/31 11:24:40;;;;;;;10.90;4.30;;;21.40;99.90;;;;;;5032263;28;20615;-75
2022/10/31 11:27:20;;;;;;;6.47;3.67;;;21.40;99.90;;;;;;5010498;28;20712;-74
2022/10/31 11:29:46;;;;;;;5.63;3.47;;;21.40;99.90;;;;;;5028874;28;21115;-74
2022/10/31 11:32:24;;;;;;;7.20;4.30;;;21.40;99.90;;;;;;5030932;28;20590;-74
2022/10/31 11:35:13;;;;;;;4.67;3.30;;;21.30;99.90;;;;;;5031595;28;20172;-73
2022/10/31 11:37:43;;;;;;;6.50;2.53;;;21.30;99.90;;;;;;5031004;28;20608;-75
2022/10/31 11:40:22;;;;;;;6.20;2.87;;;21.30;99.90;;;;;;5031689;28;21425;-75
2022/10/31 11:42:50;;;;;;;6.37;3.13;;;21.40;99.90;;;;;;5031038;28;20580;-72
2022/10/31 11:45:23;;;;;;;7.77;4.47;;;21.40;99.90;;;;;;5032250;28;20583;-73
2022/10/31 11:47:52;;;;;;;7.10;3.70;;;21.50;99.90;;;;;;5030344;28;20588;-73
2022/10/31 11:50:41;;;;;;;8.13;3.47;;;21.50;99.90;;;;;;5039892;28;21053;-73
2022/10/31 11:53:35;;;;;;;5.17;3.13;;;21.50;99.90;;;;;;5022265;28;20930;-73
2022/10/31 11:56:06;;;;;;;9.43;4.13;;;21.50;99.90;;;;;;5023882;28;20620;-74
2022/10/31 11:58:34;;;;;;;4.80;3.33;;;21.50;99.90;;;;;;5023466;28;20662;-74
2022/10/31 12:01:00;;;;;;;6.03;4.10;;;21.60;99.90;;;;;;5031616;28;20584;-73
2022/10/31 12:04:01;;;;;;;8.13;3.97;;;21.60;99.90;;;;;;5031894;28;21076;-73
2022/10/31 12:06:35;;;;;;;6.27;3.43;;;21.50;99.90;;;;;;5016057;28;20607;-73
2022/10/31 12:09:00;;;;;;;6.53;3.53;;;21.50;99.90;;;;;;5031942;28;20650;-73
2022/10/31 12:11:29;;;;;;;7.93;3.93;;;21.50;99.90;;;;;;5031358;28;20620;-74
2022/10/31 12:14:01;;;;;;;6.57;4.03;;;21.40;99.90;;;;;;5031597;28;20576;-74
2022/10/31 12:16:47;;;;;;;10.07;3.73;;;21.30;99.90;;;;;;5030334;28;20669;-74
2022/10/31 12:19:24;;;;;;;6.00;2.97;;;21.30;99.90;;;;;;5031718;28;20897;-74
2022/10/31 12:22:03;;;;;;;4.03;2.90;;;21.30;99.90;;;;;;5046760;28;20620;-74
2022/10/31 12:25:17;;;;;;;7.90;4.90;;;21.40;99.90;;;;;;5035037;28;20576;-73
2022/10/31 12:28:19;;;;;;;12.03;4.80;;;21.40;99.90;;;;;;5020710;28;20607;-73
2022/10/31 12:30:57;;;;;;;9.57;5.43;;;21.40;99.90;;;;;;5034788;28;20607;-74
2022/10/31 12:33:57;;;;;;;6.90;4.57;;;21.40;99.90;;;;;;5034474;28;20568;-74
2022/10/31 12:36:59;;;;;;;6.10;3.27;;;21.30;99.90;;;;;;5039008;28;20714;-74
2022/10/31 12:39:42;;;;;;;5.03;3.77;;;21.30;99.90;;;;;;5029457;28;20587;-74
2022/10/31 12:42:30;;;;;;;8.07;3.50;;;21.30;99.90;;;;;;5023884;28;20596;-75
2022/10/31 12:45:20;;;;;;;10.10;3.70;;;21.40;99.90;;;;;;5043328;28;20575;-75
2022/10/31 12:48:10;;;;;;;5.93;3.00;;;21.30;99.90;;;;;;5054297;28;21034;-74
2022/10/31 12:50:56;;;;;;;8.30;2.73;;;21.30;99.90;;;;;;5052793;28;20611;-74
2022/10/31 12:53:45;;;;;;;6.27;4.00;;;21.30;99.90;;;;;;5051049;28;20588;-74
2022/10/31 12:56:23;;;;;;;10.07;4.23;;;21.40;99.90;;;;;;5035097;28;20589;-74
2022/10/31 12:58:57;;;;;;;6.87;3.20;;;21.40;99.90;;;;;;5054360;28;20943;-74
2022/10/31 13:01:34;;;;;;;8.53;4.03;;;21.40;99.90;;;;;;5054129;28;20708;-74
2022/10/31 13:04:19;;;;;;;4.93;3.10;;;21.50;99.90;;;;;;5054025;28;20578;-74
2022/10/31 13:06:54;;;;;;;13.27;3.70;;;21.50;99.90;;;;;;5054312;28;20599;-74
2022/10/31 13:09:30;;;;;;;6.13;2.70;;;21.50;99.90;;;;;;5036170;28;20818;-75
2022/10/31 13:12:00;;;;;;;8.57;3.13;;;21.50;99.90;;;;;;5016206;28;20638;-74
2022/10/31 13:14:35;;;;;;;6.30;2.63;;;21.50;99.90;;;;;;5034032;28;20568;-74
2022/10/31 13:17:01;;;;;;;7.50;2.60;;;21.50;99.90;;;;;;5039595;28;20614;-74
2022/10/31 13:19:41;;;;;;;5.63;2.60;;;21.50;99.90;;;;;;5034040;28;20594;-74
2022/10/31 13:22:15;;;;;;;4.80;2.33;;;21.50;99.90;;;;;;5033383;28;20590;-75
2022/10/31 13:25:08;;;;;;;8.60;2.60;;;21.60;99.90;;;;;;5033961;28;21004;-74
2022/10/31 13:28:05;;;;;;;6.73;3.23;;;21.60;99.90;;;;;;5033898;28;20608;-74